Glenn Heights, Texas
Current Conditions -  °F | °C
As of 7:55 PM on Saturday 22 Nov 2014 (Local Time) from KJWY Reporting Station
Light Rain Light Rain  
Wind Chill: 58°   Ceiling: 1600
Heat Index: 58°   Visibility: 10mi
Dew Point: 58°   Wind: 0mph
Humidity: 100%   Direction: NA
Pressure: 29.85"   Gusts: NA
Location:  32.515°N, 96.8153°W
Report Text: KJWY 230155Z AUTO 00000KT 10SM -RA BKN016 BKN022 OVC027 15/15 A2985 RMK AO2 P0008 T01450145
Loading
Personal Weather Stations






























Interactive Weather Map New forecast layout! Learn more

10-Day Weather Forecast

Advertisements
Track Severe Weather on mobile